createdAt,value
2023-04-28T00:00:52.959Z,6.94
2023-04-28T00:01:52.977Z,6.98
2023-04-28T00:02:53.074Z,6.97
2023-04-28T00:03:53.100Z,6.98
2023-04-28T00:04:53.197Z,6.95
2023-04-28T00:05:53.007Z,6.98
2023-04-28T00:06:52.877Z,7.02
2023-04-28T00:07:52.848Z,6.99
2023-04-28T00:08:52.890Z,7.02
2023-04-28T00:09:52.832Z,6.98
2023-04-28T00:10:52.837Z,6.98
2023-04-28T00:11:52.833Z,6.99
2023-04-28T00:12:52.830Z,6.98
2023-04-28T00:13:52.798Z,6.97
2023-04-28T00:14:52.826Z,6.99
2023-04-28T00:15:52.819Z,7.02
2023-04-28T00:16:52.952Z,6.99
2023-04-28T00:17:52.803Z,7.02
2023-04-28T00:18:52.757Z,7.06
2023-04-28T00:19:52.744Z,7.06
2023-04-28T00:20:52.740Z,7.07
2023-04-28T00:21:52.684Z,7.13
2023-04-28T00:22:52.726Z,7.15
2023-04-28T00:23:52.685Z,7.16
2023-04-28T00:24:52.685Z,7.17
2023-04-28T00:25:52.679Z,7.17
2023-04-28T00:26:53.569Z,7.21
2023-04-28T00:27:52.625Z,7.21
2023-04-28T00:28:52.633Z,7.23
2023-04-28T00:29:52.661Z,7.24
2023-04-28T00:30:52.623Z,7.27
2023-04-28T00:31:52.648Z,7.25
2023-04-28T00:32:52.703Z,7.28
2023-04-28T00:33:52.574Z,7.28
2023-04-28T00:34:52.572Z,7.31
2023-04-28T00:35:52.577Z,7.30
2023-04-28T00:36:52.587Z,7.27
2023-04-28T00:37:52.566Z,7.31
2023-04-28T00:38:52.545Z,7.27
2023-04-28T00:39:52.535Z,7.30
2023-04-28T00:40:52.511Z,7.25
2023-04-28T00:41:52.481Z,7.25
2023-04-28T00:42:52.509Z,7.24
2023-04-28T00:43:52.456Z,7.24
2023-04-28T00:44:52.453Z,7.23
2023-04-28T00:45:52.489Z,7.21
2023-04-28T00:46:52.453Z,7.23
2023-04-28T00:47:52.448Z,7.20
2023-04-28T00:48:52.422Z,7.23
2023-04-28T00:49:52.420Z,7.23
2023-04-28T00:50:52.410Z,7.23
2023-04-28T00:51:52.412Z,7.23
2023-04-28T00:52:52.366Z,7.20
2023-04-28T00:53:52.396Z,7.23
2023-04-28T00:54:52.363Z,7.23
2023-04-28T00:55:52.424Z,7.24
2023-04-28T00:56:52.323Z,7.23
2023-04-28T00:57:52.386Z,7.23
2023-04-28T00:58:52.396Z,7.24
2023-04-28T00:59:52.351Z,7.21
2023-04-28T01:00:52.409Z,7.23
2023-04-28T01:01:52.316Z,7.21
2023-04-28T01:02:52.434Z,7.23
2023-04-28T01:03:52.613Z,7.23
2023-04-28T01:04:52.232Z,7.23
2023-04-28T01:05:52.281Z,7.23
2023-04-28T01:06:52.466Z,7.21
2023-04-28T01:07:52.232Z,7.21
2023-04-28T01:08:52.226Z,7.21
2023-04-28T01:09:52.239Z,7.17
2023-04-28T01:10:52.209Z,7.20
2023-04-28T01:11:52.267Z,7.20
2023-04-28T01:12:52.172Z,7.20
2023-04-28T01:13:52.206Z,7.23
2023-04-28T01:14:52.159Z,7.24
2023-04-28T01:15:52.167Z,7.23
2023-04-28T01:16:52.989Z,7.24
2023-04-28T01:17:52.165Z,7.27
2023-04-28T01:18:52.199Z,7.30
2023-04-28T01:19:52.335Z,7.27
2023-04-28T01:20:52.212Z,7.27
2023-04-28T01:21:52.061Z,7.30
2023-04-28T01:22:52.057Z,7.27
2023-04-28T01:23:52.089Z,7.25
2023-04-28T01:24:52.025Z,7.27
2023-04-28T01:25:52.023Z,7.25
2023-04-28T01:26:52.026Z,7.23
2023-04-28T01:27:51.999Z,7.21
2023-04-28T01:28:51.985Z,7.21
2023-04-28T01:29:51.990Z,7.17
2023-04-28T01:30:52.034Z,7.21
2023-04-28T01:31:52.105Z,7.16
2023-04-28T01:32:52.026Z,7.15
2023-04-28T01:33:51.952Z,7.15
2023-04-28T01:34:51.973Z,7.15
2023-04-28T01:35:52.090Z,7.15
2023-04-28T01:36:51.914Z,7.15
2023-04-28T01:37:52.067Z,7.13
2023-04-28T01:38:51.896Z,7.12
2023-04-28T01:39:51.893Z,7.10
2023-04-28T01:40:51.900Z,7.09
2023-04-28T01:41:51.996Z,7.10
2023-04-28T01:42:51.864Z,7.07
2023-04-28T01:43:51.963Z,7.06
2023-04-28T01:44:52.014Z,7.09
2023-04-28T01:45:51.973Z,7.07
2023-04-28T01:46:51.915Z,7.06
2023-04-28T01:47:51.976Z,7.07
2023-04-28T01:48:51.854Z,7.05
2023-04-28T01:49:51.863Z,7.07
2023-04-28T01:50:51.831Z,7.05
2023-04-28T01:51:51.781Z,7.06
2023-04-28T01:52:51.862Z,7.05
2023-04-28T01:53:51.737Z,7.05
2023-04-28T01:54:51.716Z,7.05
2023-04-28T01:55:51.790Z,7.05
2023-04-28T01:56:51.737Z,7.07
2023-04-28T01:57:51.908Z,7.07
2023-04-28T01:58:51.753Z,7.09
2023-04-28T01:59:51.744Z,7.09
2023-04-28T02:00:51.837Z,7.09
2023-04-28T02:01:51.911Z,7.09
2023-04-28T02:02:51.778Z,7.07
2023-04-28T02:03:51.838Z,7.07
2023-04-28T02:04:51.741Z,7.07
2023-04-28T02:05:51.721Z,7.07
2023-04-28T02:06:51.759Z,7.07
2023-04-28T02:07:51.618Z,7.09
2023-04-28T02:08:51.763Z,7.09
2023-04-28T02:09:51.623Z,7.09
2023-04-28T02:10:51.627Z,7.09
2023-04-28T02:11:51.614Z,7.09
2023-04-28T02:12:51.632Z,7.09
2023-04-28T02:13:51.628Z,7.09
2023-04-28T02:14:51.609Z,7.10
2023-04-28T02:15:51.879Z,7.10
2023-04-28T02:16:51.569Z,7.12
2023-04-28T02:17:51.527Z,7.10
2023-04-28T02:18:51.568Z,7.12
2023-04-28T02:19:51.528Z,7.12
2023-04-28T02:20:51.422Z,7.12
2023-04-28T02:21:51.464Z,7.10
2023-04-28T02:22:51.462Z,7.12
2023-04-28T02:23:51.499Z,7.10
2023-04-28T02:24:51.493Z,7.12
2023-04-28T02:25:51.576Z,7.09
2023-04-28T02:26:51.418Z,7.10
2023-04-28T02:27:51.478Z,7.12
2023-04-28T02:28:51.479Z,7.10
2023-04-28T02:29:51.424Z,7.12
2023-04-28T02:30:51.400Z,7.09
2023-04-28T02:31:51.530Z,7.12
2023-04-28T02:32:51.347Z,7.10
2023-04-28T02:33:51.398Z,7.10
2023-04-28T02:34:51.387Z,7.12
2023-04-28T02:35:51.380Z,7.12
2023-04-28T02:36:51.348Z,7.15
2023-04-28T02:37:51.368Z,7.16
2023-04-28T02:38:51.311Z,7.17
2023-04-28T02:39:51.305Z,7.17
2023-04-28T02:40:51.472Z,7.20
2023-04-28T02:41:51.262Z,7.21
2023-04-28T02:42:51.181Z,7.24
2023-04-28T02:43:51.293Z,7.24
2023-04-28T02:44:51.230Z,7.25
2023-04-28T02:45:51.347Z,7.25
2023-04-28T02:46:51.204Z,7.24
2023-04-28T02:47:51.257Z,7.27
2023-04-28T02:48:51.200Z,7.24
2023-04-28T02:49:51.174Z,7.25
2023-04-28T02:50:51.137Z,7.27
2023-04-28T02:51:51.203Z,7.24
2023-04-28T02:52:51.129Z,7.25
2023-04-28T02:53:51.145Z,7.24
2023-04-28T02:54:51.104Z,7.25
2023-04-28T02:55:51.318Z,7.27
2023-04-28T02:56:51.109Z,7.25
2023-04-28T02:57:51.283Z,7.27
2023-04-28T02:58:51.167Z,7.27
2023-04-28T02:59:51.103Z,7.27
2023-04-28T03:00:51.160Z,7.27
2023-04-28T03:02:01.185Z,7.27
2023-04-28T03:02:51.218Z,7.25
2023-04-28T03:03:51.241Z,7.25
2023-04-28T03:04:51.220Z,7.27
2023-04-28T03:05:51.170Z,7.25
2023-04-28T03:06:51.247Z,7.27
2023-04-28T03:07:51.032Z,7.24
2023-04-28T03:08:51.053Z,7.24
2023-04-28T03:09:51.314Z,7.25
2023-04-28T03:10:51.162Z,7.25
2023-04-28T03:11:50.971Z,7.24
2023-04-28T03:12:51.001Z,7.24
2023-04-28T03:15:12.733Z,7.25
2023-04-28T03:16:11.028Z,7.24
2023-04-28T03:17:10.921Z,7.24
2023-04-28T03:18:10.942Z,7.24
2023-04-28T03:19:10.914Z,7.24
2023-04-28T03:20:10.976Z,7.24
2023-04-28T03:21:10.916Z,7.27
2023-04-28T03:22:10.916Z,7.25
2023-04-28T03:23:10.893Z,7.25
2023-04-28T03:24:10.909Z,7.25
2023-04-28T03:25:10.852Z,7.28
2023-04-28T03:26:10.845Z,7.27
2023-04-28T03:27:10.817Z,7.30
2023-04-28T03:28:10.840Z,7.30
2023-04-28T03:29:10.795Z,7.28
2023-04-28T03:30:10.832Z,7.27
2023-04-28T03:31:10.778Z,7.27
2023-04-28T03:32:10.862Z,7.27
2023-04-28T03:33:10.823Z,7.25
2023-04-28T03:34:10.765Z,7.25
2023-04-28T03:35:10.736Z,7.25
2023-04-28T03:36:10.795Z,7.24
2023-04-28T03:37:10.738Z,7.25
2023-04-28T03:38:10.730Z,7.24
2023-04-28T03:39:10.798Z,7.25
2023-04-28T03:40:10.697Z,7.25
2023-04-28T03:41:10.720Z,7.25
2023-04-28T03:42:10.677Z,7.27
2023-04-28T03:43:10.656Z,7.31
2023-04-28T03:44:10.658Z,7.28
2023-04-28T03:45:10.646Z,7.31
2023-04-28T03:46:10.666Z,7.31
2023-04-28T03:47:10.671Z,7.31
2023-04-28T03:48:10.638Z,7.30
2023-04-28T03:49:10.589Z,7.30
2023-04-28T03:50:10.621Z,7.30
2023-04-28T03:51:10.598Z,7.31
2023-04-28T03:52:10.576Z,7.31
2023-04-28T03:53:10.550Z,7.30
2023-04-28T03:54:10.576Z,7.32
2023-04-28T03:55:10.530Z,7.32
2023-04-28T03:56:10.538Z,7.32
2023-04-28T03:57:10.499Z,7.30
2023-04-28T03:58:10.513Z,7.32
2023-04-28T03:59:10.476Z,7.30
2023-04-28T04:00:10.555Z,7.27
2023-04-28T04:01:10.462Z,7.30
2023-04-28T04:02:10.539Z,7.30
2023-04-28T04:03:10.896Z,7.30
2023-04-28T04:04:10.643Z,7.28
2023-04-28T04:05:10.779Z,7.28
2023-04-28T04:06:10.605Z,7.28
2023-04-28T04:07:10.411Z,7.28
2023-04-28T04:08:10.420Z,7.25
2023-04-28T04:09:10.392Z,7.25
2023-04-28T04:10:10.372Z,7.25
2023-04-28T04:11:10.401Z,7.25
2023-04-28T04:12:10.455Z,7.25
2023-04-28T04:13:10.347Z,7.24
2023-04-28T04:14:10.346Z,7.25
2023-04-28T04:15:10.345Z,7.28
2023-04-28T04:16:10.327Z,7.31
2023-04-28T04:17:10.294Z,7.31
2023-04-28T04:18:10.374Z,7.34
2023-04-28T04:19:10.365Z,7.37
2023-04-28T04:20:10.286Z,7.39
2023-04-28T04:21:10.256Z,7.42
2023-04-28T04:22:10.255Z,7.42
2023-04-28T04:23:10.232Z,7.45
2023-04-28T04:24:10.255Z,7.46
2023-04-28T04:25:10.240Z,7.46
2023-04-28T04:26:10.223Z,7.48
2023-04-28T04:27:10.207Z,7.48
2023-04-28T04:28:10.184Z,7.49
2023-04-28T04:29:10.172Z,7.49
2023-04-28T04:30:10.179Z,7.50
2023-04-28T04:31:10.203Z,7.53
2023-04-28T04:32:10.277Z,7.55
2023-04-28T04:33:10.215Z,7.55
2023-04-28T04:34:10.123Z,7.58
2023-04-28T04:35:10.140Z,7.58
2023-04-28T04:36:10.167Z,7.61
2023-04-28T04:37:10.083Z,7.61
2023-04-28T04:38:10.089Z,7.63
2023-04-28T04:39:10.097Z,7.61
2023-04-28T04:40:10.073Z,7.64
2023-04-28T04:41:10.045Z,7.67
2023-04-28T04:42:23.190Z,7.67
2023-04-28T04:43:11.052Z,7.67
2023-04-28T04:44:10.060Z,7.68
2023-04-28T04:45:09.993Z,7.68
2023-04-28T04:46:10.036Z,7.71
2023-04-28T04:47:09.979Z,7.72
2023-04-28T04:48:10.075Z,7.74
2023-04-28T04:49:09.956Z,7.75
2023-04-28T04:50:09.953Z,7.77
2023-04-28T04:51:09.913Z,7.80
2023-04-28T04:52:09.934Z,7.80
2023-04-28T04:53:13.867Z,7.82
2023-04-28T04:54:10.909Z,7.86
2023-04-28T04:55:09.898Z,7.87
2023-04-28T04:56:09.894Z,7.92
2023-04-28T04:57:09.866Z,7.92
2023-04-28T04:58:09.863Z,7.92
2023-04-28T04:59:09.869Z,7.97
2023-04-28T05:00:09.900Z,8.00
2023-04-28T05:01:09.829Z,8.02
2023-04-28T05:02:09.950Z,8.05
2023-04-28T05:03:09.907Z,8.08
2023-04-28T05:04:10.090Z,8.15
2023-04-28T05:05:20.323Z,8.18
2023-04-28T05:06:10.787Z,8.18
2023-04-28T05:07:09.792Z,8.22
2023-04-28T05:08:09.772Z,8.26
2023-04-28T05:09:09.754Z,8.28
2023-04-28T05:10:09.785Z,8.30
2023-04-28T05:11:09.715Z,8.37
2023-04-28T05:12:09.712Z,8.37
2023-04-28T05:13:09.742Z,8.41
2023-04-28T05:14:10.020Z,8.47
2023-04-28T05:15:09.865Z,8.48
2023-04-28T05:16:09.753Z,8.55
2023-04-28T05:17:09.661Z,8.56
2023-04-28T05:18:09.758Z,8.61
2023-04-28T05:19:09.642Z,8.65
2023-04-28T05:20:11.597Z,8.70
2023-04-28T05:21:09.618Z,8.73
2023-04-28T05:22:09.605Z,8.77
2023-04-28T05:23:09.589Z,8.77
2023-04-28T05:24:09.630Z,8.83
2023-04-28T05:25:09.573Z,8.86
2023-04-28T05:26:09.559Z,8.91
2023-04-28T05:27:09.557Z,8.94
2023-04-28T05:28:09.566Z,8.98
2023-04-28T05:29:09.552Z,9.01
2023-04-28T05:30:09.549Z,9.04
2023-04-28T05:31:10.158Z,9.10
2023-04-28T05:32:09.597Z,9.10
2023-04-28T05:33:09.591Z,9.13
2023-04-28T05:34:09.496Z,9.14
2023-04-28T05:35:09.486Z,9.14
2023-04-28T05:36:09.490Z,9.17
2023-04-28T05:37:09.467Z,9.17
2023-04-28T05:38:09.480Z,9.15
2023-04-28T05:39:09.433Z,9.15
2023-04-28T05:40:09.408Z,9.18
2023-04-28T05:41:09.437Z,9.18
2023-04-28T05:42:09.385Z,9.20
2023-04-28T05:43:09.372Z,9.20
2023-04-28T05:44:09.355Z,9.23
2023-04-28T05:45:09.486Z,9.24
2023-04-28T05:46:18.224Z,9.28
2023-04-28T05:47:10.353Z,9.31
2023-04-28T05:48:09.364Z,9.29
2023-04-28T05:49:09.315Z,9.32
2023-04-28T05:50:09.317Z,9.35
2023-04-28T05:51:09.300Z,9.38
2023-04-28T05:52:09.261Z,9.38
2023-04-28T05:53:16.280Z,9.43
2023-04-28T05:54:09.263Z,9.46
2023-04-28T05:55:09.250Z,9.50
2023-04-28T05:56:10.956Z,9.53
2023-04-28T05:57:09.249Z,9.56
2023-04-28T05:58:09.237Z,9.58
2023-04-28T05:59:09.227Z,9.65
2023-04-28T06:00:09.219Z,9.65
2023-04-28T06:01:09.209Z,9.68
2023-04-28T06:02:09.167Z,9.71
2023-04-28T06:03:09.340Z,9.75
2023-04-28T06:04:09.443Z,9.81
2023-04-28T06:05:09.484Z,9.89
2023-04-28T06:06:10.346Z,9.93
2023-04-28T06:07:09.140Z,9.99
2023-04-28T06:08:09.123Z,10.05
2023-04-28T06:09:09.284Z,10.08
2023-04-28T06:10:09.105Z,10.15
2023-04-28T06:11:09.103Z,10.23
2023-04-28T06:12:09.078Z,10.29
2023-04-28T06:13:09.057Z,10.32
2023-04-28T06:14:09.049Z,10.38
2023-04-28T06:15:09.030Z,10.42
2023-04-28T06:16:09.144Z,10.47
2023-04-28T06:17:09.042Z,10.53
2023-04-28T06:18:09.065Z,10.63
2023-04-28T06:19:08.983Z,10.71
2023-04-28T06:20:08.996Z,10.76
2023-04-28T06:21:08.964Z,10.82
2023-04-28T06:22:08.954Z,10.91
2023-04-28T06:23:08.965Z,10.99
2023-04-28T06:24:08.939Z,11.03
2023-04-28T06:25:08.926Z,11.11
2023-04-28T06:26:08.922Z,11.17
2023-04-28T06:27:08.917Z,11.19
2023-04-28T06:28:08.901Z,11.25
2023-04-28T06:29:08.917Z,11.27
2023-04-28T06:30:08.866Z,11.32
2023-04-28T06:31:08.898Z,11.35
2023-04-28T06:32:08.849Z,11.28
2023-04-28T06:33:08.861Z,11.21
2023-04-28T06:34:08.830Z,11.17
2023-04-28T06:35:08.825Z,11.18
2023-04-28T06:36:08.806Z,11.17
2023-04-28T06:37:08.806Z,11.21
2023-04-28T06:38:08.791Z,11.19
2023-04-28T06:39:08.786Z,11.22
2023-04-28T06:40:08.755Z,11.28
2023-04-28T06:41:08.756Z,11.29
2023-04-28T06:42:08.749Z,11.35
2023-04-28T06:43:08.731Z,11.37
2023-04-28T06:44:08.711Z,11.39
2023-04-28T06:45:08.708Z,11.40
2023-04-28T06:46:08.703Z,11.47
2023-04-28T06:47:08.738Z,11.46
2023-04-28T06:48:08.709Z,11.47
2023-04-28T06:49:08.698Z,11.52
2023-04-28T06:50:08.674Z,11.54
2023-04-28T06:51:08.689Z,11.58
2023-04-28T06:52:08.628Z,11.62
2023-04-28T06:53:08.637Z,11.69
2023-04-28T06:54:08.619Z,11.76
2023-04-28T06:55:08.590Z,11.80
2023-04-28T06:56:11.039Z,11.90
2023-04-28T06:57:08.591Z,11.95
2023-04-28T06:58:08.567Z,12.02
2023-04-28T06:59:08.558Z,12.04
2023-04-28T07:00:08.590Z,12.07
2023-04-28T07:01:08.553Z,11.98
2023-04-28T07:02:08.541Z,11.99
2023-04-28T07:03:09.075Z,11.99
2023-04-28T07:04:08.703Z,11.98
2023-04-28T07:05:08.505Z,11.91
2023-04-28T07:06:08.615Z,11.80
2023-04-28T07:07:08.484Z,11.73
2023-04-28T07:08:08.496Z,11.61
2023-04-28T07:09:08.461Z,11.57
2023-04-28T07:10:08.488Z,11.51
2023-04-28T07:11:08.469Z,11.47
2023-04-28T07:12:08.457Z,11.46
2023-04-28T07:13:08.492Z,11.44
2023-04-28T07:14:08.405Z,11.42
2023-04-28T07:15:10.063Z,11.39
2023-04-28T07:16:08.431Z,11.40
2023-04-28T07:17:08.373Z,11.42
2023-04-28T07:18:08.606Z,11.36
2023-04-28T07:19:08.391Z,11.32
2023-04-28T07:20:08.387Z,11.33
2023-04-28T07:21:08.398Z,11.27
2023-04-28T07:22:08.305Z,11.28
2023-04-28T07:23:08.338Z,11.32
2023-04-28T07:24:08.323Z,11.33
2023-04-28T07:25:08.318Z,11.36
2023-04-28T07:26:08.388Z,11.39
2023-04-28T07:27:08.298Z,11.43
2023-04-28T07:28:08.260Z,11.42
2023-04-28T07:29:08.272Z,11.40
2023-04-28T07:30:25.712Z,11.42
2023-04-28T07:31:09.245Z,11.40
2023-04-28T07:32:08.307Z,11.42
2023-04-28T07:33:08.253Z,11.44
2023-04-28T07:34:08.265Z,11.49
2023-04-28T07:35:08.238Z,11.54
2023-04-28T07:36:08.190Z,11.58
2023-04-28T07:37:08.181Z,11.62
2023-04-28T07:38:08.137Z,11.69
2023-04-28T07:39:08.133Z,11.69
2023-04-28T07:40:08.149Z,11.69
2023-04-28T07:41:10.103Z,11.65
2023-04-28T07:42:08.174Z,11.69
2023-04-28T07:43:08.106Z,11.73
2023-04-28T07:44:08.166Z,11.79
2023-04-28T07:45:08.103Z,11.86
2023-04-28T07:46:08.137Z,11.90
2023-04-28T07:47:08.061Z,11.94
2023-04-28T07:48:08.139Z,11.98
2023-04-28T07:49:08.152Z,12.01
2023-04-28T07:50:08.023Z,12.02
2023-04-28T07:51:08.023Z,12.07
2023-04-28T07:52:07.991Z,12.05
2023-04-28T07:53:07.979Z,12.02
2023-04-28T07:54:07.984Z,12.01
2023-04-28T07:55:07.964Z,12.04
2023-04-28T07:56:08.009Z,12.01
2023-04-28T07:57:07.953Z,12.05
2023-04-28T07:58:07.929Z,12.07
2023-04-28T07:59:07.967Z,12.10
2023-04-28T08:00:07.922Z,12.13
2023-04-28T08:01:07.907Z,12.14
2023-04-28T08:02:07.955Z,12.20
2023-04-28T08:03:08.062Z,12.21
2023-04-28T08:04:08.176Z,12.28
2023-04-28T08:05:08.030Z,12.29
2023-04-28T08:06:07.935Z,12.34
2023-04-28T08:07:07.845Z,12.45
2023-04-28T08:08:07.820Z,12.45
2023-04-28T08:09:07.820Z,12.47
2023-04-28T08:10:07.849Z,12.52
2023-04-28T08:11:07.841Z,12.53
2023-04-28T08:12:07.767Z,12.52
2023-04-28T08:13:07.832Z,12.46
2023-04-28T08:14:07.800Z,12.42
2023-04-28T08:15:07.811Z,12.42
2023-04-28T08:16:07.781Z,12.52
2023-04-28T08:17:07.747Z,12.57
2023-04-28T08:18:08.031Z,12.67
2023-04-28T08:19:07.730Z,12.74
2023-04-28T08:20:11.099Z,12.79
2023-04-28T08:21:07.805Z,12.86
2023-04-28T08:22:07.680Z,12.87
2023-04-28T08:23:07.733Z,12.89
2023-04-28T08:24:07.650Z,12.93
2023-04-28T08:25:07.651Z,12.96
2023-04-28T08:26:07.633Z,13.04
2023-04-28T08:27:08.003Z,13.11
2023-04-28T08:28:07.612Z,13.20
2023-04-28T08:29:07.642Z,13.29
2023-04-28T08:30:07.640Z,13.32
2023-04-28T08:31:07.716Z,13.38
2023-04-28T08:32:07.589Z,13.32
2023-04-28T08:33:07.814Z,13.22
2023-04-28T08:34:07.676Z,13.10
2023-04-28T08:35:07.547Z,13.04
2023-04-28T08:36:07.510Z,13.03
2023-04-28T08:37:07.529Z,13.10
2023-04-28T08:38:07.509Z,13.14
2023-04-28T08:39:07.514Z,13.14
2023-04-28T08:40:07.514Z,13.14
2023-04-28T08:41:07.514Z,13.19
2023-04-28T08:42:07.471Z,13.32
2023-04-28T08:43:07.517Z,13.33
2023-04-28T08:44:07.452Z,13.28
2023-04-28T08:45:07.643Z,13.28
2023-04-28T08:46:07.439Z,13.32
2023-04-28T08:47:07.400Z,13.33
2023-04-28T08:48:07.393Z,13.39
2023-04-28T08:49:07.389Z,13.41
2023-04-28T08:50:07.400Z,13.41
2023-04-28T08:51:07.452Z,13.45
2023-04-28T08:52:07.393Z,13.48
2023-04-28T08:53:07.352Z,13.49
2023-04-28T08:55:07.328Z,13.44
2023-04-28T08:56:07.303Z,13.42
2023-04-28T08:57:07.339Z,13.44
2023-04-28T08:58:07.304Z,13.46
2023-04-28T08:59:07.306Z,13.45
2023-04-28T09:00:07.276Z,13.44
2023-04-28T09:01:07.267Z,13.41
2023-04-28T09:02:07.292Z,13.39
2023-04-28T09:03:07.416Z,13.39
2023-04-28T09:04:07.644Z,13.32
2023-04-28T09:05:07.463Z,13.30
2023-04-28T09:06:07.183Z,13.26
2023-04-28T09:07:07.205Z,13.23
2023-04-28T09:08:07.167Z,13.25
2023-04-28T09:09:07.424Z,13.26
2023-04-28T09:10:07.275Z,13.25
2023-04-28T09:11:07.165Z,13.28
2023-04-28T09:12:07.112Z,13.33
2023-04-28T09:13:07.111Z,13.36
2023-04-28T09:14:07.118Z,13.45
2023-04-28T09:15:07.114Z,13.49
2023-04-28T09:16:07.153Z,13.51
2023-04-28T09:17:07.096Z,13.54
2023-04-28T09:18:07.206Z,13.55
2023-04-28T09:19:07.085Z,13.62
2023-04-28T09:20:07.066Z,13.66
2023-04-28T09:21:07.061Z,13.78
2023-04-28T09:22:17.687Z,13.79
2023-04-28T09:23:08.000Z,13.84
2023-04-28T09:24:07.028Z,13.87
2023-04-28T09:25:07.007Z,13.88
2023-04-28T09:26:06.970Z,13.89
2023-04-28T09:27:07.014Z,13.89
2023-04-28T09:28:06.960Z,13.91
2023-04-28T09:29:06.999Z,13.95
2023-04-28T09:30:06.931Z,14.00
2023-04-28T09:31:06.952Z,14.03
2023-04-28T09:32:06.933Z,14.02
2023-04-28T09:33:08.238Z,14.00
2023-04-28T09:34:06.926Z,14.02
2023-04-28T09:35:06.915Z,14.00
2023-04-28T09:36:06.896Z,14.04
2023-04-28T09:37:06.891Z,14.10
2023-04-28T09:38:06.848Z,14.17
2023-04-28T09:39:06.856Z,14.18
2023-04-28T09:40:06.845Z,14.20
2023-04-28T09:41:06.863Z,14.22
2023-04-28T09:42:06.910Z,14.28
2023-04-28T09:43:18.967Z,14.36
2023-04-28T09:44:07.793Z,14.43
2023-04-28T09:45:06.888Z,14.47
2023-04-28T09:46:06.792Z,14.50
2023-04-28T09:47:06.770Z,14.51
2023-04-28T09:48:06.777Z,14.57
2023-04-28T09:49:06.768Z,14.62
2023-04-28T09:50:06.918Z,14.64
2023-04-28T09:51:06.709Z,14.69
2023-04-28T09:52:06.706Z,14.75
2023-04-28T09:53:06.927Z,14.83
2023-04-28T09:54:06.721Z,14.88
2023-04-28T09:55:06.680Z,14.89
2023-04-28T09:56:06.672Z,14.91
2023-04-28T09:57:06.899Z,14.92
2023-04-28T09:58:06.710Z,14.89
2023-04-28T09:59:06.607Z,14.89
2023-04-28T10:00:07.003Z,14.92
2023-04-28T10:01:06.647Z,14.99
2023-04-28T10:02:20.510Z,14.98
2023-04-28T10:03:07.705Z,14.89
2023-04-28T10:04:06.795Z,14.83
2023-04-28T10:05:06.756Z,14.80
2023-04-28T10:06:06.589Z,14.72
2023-04-28T10:07:06.556Z,14.64
2023-04-28T10:08:06.546Z,14.47
2023-04-28T10:09:06.507Z,14.40
2023-04-28T10:10:06.504Z,14.28
2023-04-28T10:11:06.500Z,14.25
2023-04-28T10:12:06.477Z,14.24
2023-04-28T10:13:06.490Z,14.28
2023-04-28T10:14:06.487Z,14.25
2023-04-28T10:15:06.450Z,14.22
2023-04-28T10:16:06.539Z,14.14
2023-04-28T10:17:06.428Z,14.07
2023-04-28T10:18:06.478Z,14.03
2023-04-28T10:19:06.406Z,13.99
2023-04-28T10:20:06.449Z,13.96
2023-04-28T10:21:06.388Z,13.91
2023-04-28T10:22:06.460Z,13.85
2023-04-28T10:23:06.396Z,13.89
2023-04-28T10:24:06.505Z,13.97
2023-04-28T10:25:06.355Z,14.04
2023-04-28T10:26:06.336Z,14.14
2023-04-28T10:27:06.391Z,14.22
2023-04-28T10:28:06.333Z,14.32
2023-04-28T10:29:06.282Z,14.27
2023-04-28T10:30:12.964Z,14.18
2023-04-28T10:31:07.336Z,14.20
2023-04-28T10:32:06.259Z,14.21
2023-04-28T10:33:06.368Z,14.21
2023-04-28T10:34:06.263Z,14.25
2023-04-28T10:35:06.246Z,14.24
2023-04-28T10:36:06.240Z,14.25
2023-04-28T10:37:06.254Z,14.24
2023-04-28T10:38:06.265Z,14.17
2023-04-28T10:39:06.174Z,14.10
2023-04-28T10:40:08.266Z,14.10
2023-04-28T10:41:06.209Z,14.07
2023-04-28T10:42:06.183Z,14.07
2023-04-28T10:43:06.162Z,14.07
2023-04-28T10:44:06.159Z,14.06
2023-04-28T10:45:06.158Z,14.06
2023-04-28T10:46:06.420Z,14.04
2023-04-28T10:47:06.156Z,14.07
2023-04-28T10:48:06.194Z,14.10
2023-04-28T10:49:06.122Z,14.09
2023-04-28T10:50:06.128Z,14.15
2023-04-28T10:51:06.085Z,14.25
2023-04-28T10:52:06.154Z,14.40
2023-04-28T10:53:06.036Z,14.47
2023-04-28T10:54:06.052Z,14.51
2023-04-28T10:55:19.399Z,14.55
2023-04-28T10:56:07.039Z,14.62
2023-04-28T10:57:06.028Z,14.65
2023-04-28T10:58:06.012Z,14.70
2023-04-28T10:59:06.023Z,14.69
2023-04-28T11:00:06.012Z,14.77
2023-04-28T11:01:06.032Z,14.84
2023-04-28T11:02:06.751Z,14.84
2023-04-28T11:03:06.171Z,14.68
2023-04-28T11:04:06.078Z,14.61
2023-04-28T11:05:06.184Z,14.65
2023-04-28T11:06:06.007Z,14.78
2023-04-28T11:07:05.897Z,14.84
2023-04-28T11:08:05.902Z,15.06
2023-04-28T11:09:05.862Z,15.27
2023-04-28T11:10:06.052Z,15.54
2023-04-28T11:11:05.876Z,15.76
2023-04-28T11:12:07.572Z,16.01
2023-04-28T11:13:05.839Z,16.21
2023-04-28T11:14:05.844Z,16.30
2023-04-28T11:15:05.902Z,16.30
2023-04-28T11:16:05.885Z,16.34
2023-04-28T11:17:06.062Z,16.49
2023-04-28T11:18:06.042Z,16.63
2023-04-28T11:19:06.453Z,16.46
2023-04-28T11:20:06.041Z,16.42
2023-04-28T11:21:05.798Z,16.41
2023-04-28T11:22:05.819Z,16.42
2023-04-28T11:23:05.766Z,16.42
2023-04-28T11:24:05.742Z,16.25
2023-04-28T11:25:05.693Z,16.24
2023-04-28T11:26:06.845Z,16.23
2023-04-28T11:27:05.718Z,16.41
2023-04-28T11:28:05.669Z,16.38
2023-04-28T11:29:05.652Z,16.33
2023-04-28T11:30:05.896Z,16.43
2023-04-28T11:31:05.642Z,16.73
2023-04-28T11:32:05.824Z,17.06
2023-04-28T11:33:05.688Z,17.38
2023-04-28T11:34:05.638Z,17.66
2023-04-28T11:35:05.701Z,17.89
2023-04-28T11:36:05.603Z,17.95
2023-04-28T11:37:05.728Z,17.92
2023-04-28T11:38:05.775Z,17.87
2023-04-28T11:39:05.606Z,17.90
2023-04-28T11:40:05.580Z,17.78
2023-04-28T11:41:05.626Z,17.25
2023-04-28T11:42:05.532Z,16.94
2023-04-28T11:43:05.518Z,16.60
2023-04-28T11:44:05.531Z,16.50
2023-04-28T11:45:05.510Z,16.49
2023-04-28T11:46:05.548Z,16.57
2023-04-28T11:47:06.180Z,16.71
2023-04-28T11:48:05.522Z,16.98
2023-04-28T11:49:05.460Z,17.01
2023-04-28T11:50:05.457Z,17.15
2023-04-28T11:51:05.426Z,17.38
2023-04-28T11:52:05.444Z,17.64
2023-04-28T11:53:05.490Z,17.71
2023-04-28T11:54:05.400Z,17.84
2023-04-28T11:55:05.404Z,17.99
2023-04-28T11:56:05.380Z,17.89
2023-04-28T11:57:05.849Z,17.58
2023-04-28T11:58:05.372Z,17.36
2023-04-28T11:59:05.427Z,17.33
2023-04-28T12:00:05.522Z,17.40
2023-04-28T12:01:05.341Z,17.33
2023-04-28T12:02:05.371Z,17.18
2023-04-28T12:03:05.425Z,16.93
2023-04-28T12:04:05.479Z,16.96
2023-04-28T12:05:05.329Z,16.97
2023-04-28T12:06:05.290Z,17.00
2023-04-28T12:07:05.284Z,17.06
2023-04-28T12:08:05.304Z,17.11
2023-04-28T12:09:05.275Z,17.15
2023-04-28T12:10:05.234Z,17.12
2023-04-28T12:11:05.201Z,16.98
2023-04-28T12:12:05.299Z,16.79
2023-04-28T12:13:05.173Z,16.70
2023-04-28T12:14:05.242Z,16.68
2023-04-28T12:15:05.187Z,16.63
2023-04-28T12:16:05.224Z,16.58
2023-04-28T12:17:05.170Z,16.50
2023-04-28T12:18:05.247Z,16.46
2023-04-28T12:19:05.136Z,16.33
2023-04-28T12:20:05.177Z,16.17
2023-04-28T12:21:05.115Z,15.97
2023-04-28T12:22:05.124Z,15.97
2023-04-28T12:23:05.093Z,16.05
2023-04-28T12:24:05.087Z,16.09
2023-04-28T12:25:05.090Z,15.89
2023-04-28T12:26:05.072Z,15.78
2023-04-28T12:27:05.049Z,15.82
2023-04-28T12:28:05.857Z,15.90
2023-04-28T12:29:05.050Z,15.96
2023-04-28T12:30:05.052Z,15.87
2023-04-28T12:31:05.039Z,15.92
2023-04-28T12:32:05.003Z,15.84
2023-04-28T12:33:05.019Z,15.89
2023-04-28T12:34:04.967Z,16.04
2023-04-28T12:35:04.984Z,16.09
2023-04-28T12:36:04.942Z,16.27
2023-04-28T12:37:04.975Z,16.48
2023-04-28T12:38:04.984Z,16.53
2023-04-28T12:39:04.950Z,16.63
2023-04-28T12:40:04.971Z,16.70
2023-04-28T12:41:04.917Z,16.63
2023-04-28T12:42:04.910Z,16.64
2023-04-28T12:43:04.910Z,16.52
2023-04-28T12:44:04.892Z,16.43
2023-04-28T12:45:04.879Z,16.53
2023-04-28T12:46:04.927Z,16.70
2023-04-28T12:47:04.850Z,16.88
2023-04-28T12:48:04.905Z,17.00
2023-04-28T12:49:04.805Z,17.07
2023-04-28T12:50:04.812Z,17.22
2023-04-28T12:51:04.833Z,17.36
2023-04-28T12:52:04.801Z,17.46
2023-04-28T12:53:04.824Z,17.54
2023-04-28T12:54:04.825Z,17.38
2023-04-28T12:55:04.799Z,17.31
2023-04-28T12:56:04.746Z,17.36
2023-04-28T12:57:04.713Z,17.40
2023-04-28T12:58:04.723Z,17.40
2023-04-28T12:59:06.201Z,17.43
2023-04-28T13:00:04.718Z,17.46
2023-04-28T13:01:04.695Z,17.33
2023-04-28T13:02:04.696Z,17.28
2023-04-28T13:03:04.833Z,17.21
2023-04-28T13:04:04.871Z,17.15
2023-04-28T13:05:04.712Z,17.01
2023-04-28T13:06:04.658Z,16.94
2023-04-28T13:07:04.606Z,16.97